Time;durP1;ratioP1;P1;durP2;ratioP2;P2;SDS_P1;SDS_P2;PMS_P1;PMS_P2;Temp;Humidity;BMP_temperature;BMP_pressure;BME280_temperature;BME280_humidity;BME280_pressure;Samples;Min_cycle;Max_cycle;Signal;HPM_P1;HPM_P2
2021/08/24 00:00:50;;;;;;;;;;;;;;;26.03;62.25;100866.03;5131016;27;1315;-61
2021/08/24 00:03:17;;;;;;;;;;;;;;;26.03;62.20;100860.69;5130989;27;1914;-61
2021/08/24 00:05:46;;;;;;;;;;;;;;;26.04;61.71;100856.19;5112409;27;1224;-60
2021/08/24 00:08:13;;;;;;;;;;;;;;;26.02;61.90;100859.00;5111964;27;1491;-61
2021/08/24 00:10:55;;;;;;;;;;;;;;;26.00;62.24;100854.75;5130597;27;1215;-61
2021/08/24 00:13:22;;;;;;;;;;;;;;;26.01;61.41;100851.13;5130717;27;1604;-61
2021/08/24 00:15:52;;;;;;;;;;;;;;;26.03;61.89;100854.50;5130579;27;1345;-61
2021/08/24 00:18:19;;;;;;;;;;;;;;;26.03;62.21;100854.50;5130638;27;1042;-62
2021/08/24 00:20:47;;;;;;;;;;;;;;;26.01;61.91;100849.31;5112419;27;1322;-61
2021/08/24 00:23:15;;;;;;;;;;;;;;;26.06;62.04;100852.41;5130771;27;1909;-61
2021/08/24 00:25:41;;;;;;;;;;;;;;;26.03;62.17;100847.34;5130931;27;1314;-61
2021/08/24 00:28:09;;;;;;;;;;;;;;;26.01;61.75;100845.78;5130424;27;931;-61
2021/08/24 00:30:38;;;;;;;;;;;;;;;26.01;62.23;100843.13;5130528;27;1273;-61
2021/08/24 00:33:05;;;;;;;;;;;;;;;26.00;61.85;100842.28;5130238;27;1089;-61
2021/08/24 00:35:34;;;;;;;;;;;;;;;25.99;62.00;100839.75;5129995;27;1216;-61
2021/08/24 00:38:00;;;;;;;;;;;;;;;25.98;62.38;100844.22;5129901;27;1044;-61
2021/08/24 00:40:27;;;;;;;;;;;;;;;26.00;62.37;100850.28;5130213;27;1243;-61
2021/08/24 00:42:55;;;;;;;;;;;;;;;25.99;62.39;100847.75;5110955;27;1918;-61
2021/08/24 00:45:22;;;;;;;;;;;;;;;25.97;62.69;100844.34;5110826;27;1282;-62
2021/08/24 00:47:49;;;;;;;;;;;;;;;25.94;62.09;100837.47;5130135;27;775;-62
2021/08/24 00:50:27;;;;;;;;;;;;;;;25.95;62.47;100832.97;5129412;27;1211;-61
2021/08/24 00:52:59;;;;;;;;;;;;;;;25.95;62.29;100822.28;5129991;27;1109;-61
2021/08/24 00:55:26;;;;;;;;;;;;;;;25.94;62.07;100816.09;5128696;27;1364;-61
2021/08/24 00:57:56;;;;;;;;;;;;;;;25.96;62.71;100822.16;5129557;27;1082;-62
2021/08/24 01:00:24;;;;;;;;;;;;;;;25.95;62.61;100824.97;5129827;27;1286;-61
2021/08/24 01:02:51;;;;;;;;;;;;;;;25.97;62.51;100836.34;5129632;27;1980;-62
2021/08/24 01:05:18;;;;;;;;;;;;;;;25.99;62.41;100858.44;5129552;27;1247;-61
2021/08/24 01:08:05;;;;;;;;;;;;;;;25.97;62.48;100881.72;5110979;27;1071;-62
2021/08/24 01:10:52;;;;;;;;;;;;;;;25.99;62.70;100885.13;5129125;27;1390;-62
2021/08/24 01:13:22;;;;;;;;;;;;;;;25.97;62.79;100887.91;5129294;27;1367;-62
2021/08/24 01:15:52;;;;;;;;;;;;;;;25.95;62.42;100894.34;5093811;27;1342;-62
2021/08/24 01:18:33;;;;;;;;;;;;;;;25.95;62.55;100897.03;5129372;27;1142;-62
2021/08/24 01:21:19;;;;;;;;;;;;;;;25.92;63.18;100892.81;5110506;27;1251;-62
2021/08/24 01:23:49;;;;;;;;;;;;;;;25.94;63.07;100887.31;5129648;27;1060;-62
2021/08/24 01:26:24;;;;;;;;;;;;;;;25.93;62.88;100872.31;5109887;27;1299;-62
2021/08/24 01:28:54;;;;;;;;;;;;;;;25.94;62.93;100879.31;5129062;27;1441;-63
2021/08/24 01:31:39;;;;;;;;;;;;;;;25.93;63.43;100874.97;5129492;27;1294;-62
2021/08/24 01:34:24;;;;;;;;;;;;;;;25.93;63.34;100865.13;5129510;27;1129;-62
2021/08/24 01:36:54;;;;;;;;;;;;;;;25.93;63.49;100856.28;5129499;27;1242;-62
2021/08/24 01:39:27;;;;;;;;;;;;;;;25.91;63.32;100860.88;5129430;27;1053;-62
2021/08/24 01:41:56;;;;;;;;;;;;;;;25.95;63.49;100848.97;5128726;27;1913;-62
2021/08/24 01:44:24;;;;;;;;;;;;;;;25.93;63.03;100859.78;5129176;27;889;-62
2021/08/24 01:47:03;;;;;;;;;;;;;;;25.95;63.08;100867.66;5129091;27;1220;-62
2021/08/24 01:49:34;;;;;;;;;;;;;;;25.94;63.48;100882.81;5129231;27;986;-62
2021/08/24 01:52:04;;;;;;;;;;;;;;;25.93;63.86;100888.31;5128847;27;1243;-63
2021/08/24 01:54:35;;;;;;;;;;;;;;;25.95;63.51;100889.88;5128782;27;1201;-62
2021/08/24 01:57:02;;;;;;;;;;;;;;;25.93;63.56;100885.66;5129026;27;1389;-62
2021/08/24 01:59:55;;;;;;;;;;;;;;;25.93;63.64;100890.97;5128847;27;947;-62
2021/08/24 02:02:27;;;;;;;;;;;;;;;25.92;63.78;100883.94;5105342;28;1906;-62
2021/08/24 02:05:09;;;;;;;;;;;;;;;25.89;63.27;100890.38;5110488;28;897;-62
2021/08/24 02:07:37;;;;;;;;;;;;;;;25.90;63.40;100886.72;5128420;27;1351;-62
2021/08/24 02:10:11;;;;;;;;;;;;;;;25.89;63.33;100873.53;5128852;28;1165;-62
2021/08/24 02:12:39;;;;;;;;;;;;;;;25.88;64.01;100866.47;5128199;28;1310;-62
2021/08/24 02:15:06;;;;;;;;;;;;;;;25.90;63.19;100853.88;5128846;28;1299;-62
2021/08/24 02:17:34;;;;;;;;;;;;;;;25.89;64.08;100869.03;5128401;28;1326;-62
2021/08/24 02:20:08;;;;;;;;;;;;;;;25.89;64.09;100862.84;5110065;28;1291;-62
2021/08/24 02:22:37;;;;;;;;;;;;;;;25.91;64.14;100852.88;5128576;28;1980;-62
2021/08/24 02:25:04;;;;;;;;;;;;;;;25.89;63.84;100852.19;5129260;28;1169;-62
2021/08/24 02:27:34;;;;;;;;;;;;;;;25.89;63.58;100839.69;5128878;28;1201;-62
2021/08/24 02:30:02;;;;;;;;;;;;;;;25.90;63.37;100837.88;5129130;28;1267;-62
2021/08/24 02:32:32;;;;;;;;;;;;;;;25.91;63.98;100834.19;5109213;28;1422;-62
2021/08/24 02:35:03;;;;;;;;;;;;;;;25.91;63.89;100828.88;5128961;28;1215;-62
2021/08/24 02:37:37;;;;;;;;;;;;;;;25.91;63.68;100828.88;5110005;28;1406;-62
2021/08/24 02:40:06;;;;;;;;;;;;;;;25.90;63.15;100827.19;5128877;28;1270;-63
2021/08/24 02:42:43;;;;;;;;;;;;;;;25.89;63.59;100818.34;5109524;28;1898;-62
2021/08/24 02:45:14;;;;;;;;;;;;;;;25.89;63.13;100817.50;5109721;28;1213;-62
2021/08/24 02:47:41;;;;;;;;;;;;;;;25.90;63.44;100821.84;5128535;28;947;-62
2021/08/24 02:50:09;;;;;;;;;;;;;;;25.90;63.33;100809.34;5128698;28;1250;-62
2021/08/24 02:52:36;;;;;;;;;;;;;;;25.91;64.52;100819.03;5128794;28;1270;-63
2021/08/24 02:55:05;;;;;;;;;;;;;;;25.83;66.03;100815.34;5127990;28;1142;-62
2021/08/24 02:57:32;;;;;;;;;;;;;;;25.81;66.89;100812.78;5128264;28;1220;-62
2021/08/24 02:59:58;;;;;;;;;;;;;;;25.80;66.87;100818.28;5128960;28;1177;-62
2021/08/24 03:02:25;;;;;;;;;;;;;;;25.73;67.02;100815.28;5128211;28;2051;-62
2021/08/24 03:04:52;;;;;;;;;;;;;;;25.69;67.36;100819.16;5109616;28;1402;-62
2021/08/24 03:07:25;;;;;;;;;;;;;;;25.69;66.83;100816.50;5128232;28;1220;-62
2021/08/24 03:09:53;;;;;;;;;;;;;;;25.64;67.33;100821.41;5128737;28;1109;-62
2021/08/24 03:12:28;;;;;;;;;;;;;;;25.60;68.40;100821.78;5109314;28;1795;-61
2021/08/24 03:15:22;;;;;;;;;;;;;;;25.65;68.77;100830.25;5128373;28;1233;-61
2021/08/24 03:18:10;;;;;;;;;;;;;;;25.65;69.55;100822.25;5105292;28;1739;-62
2021/08/24 03:20:40;;;;;;;;;;;;;;;25.51;70.71;100821.56;5131692;27;1235;-62
2021/08/24 03:23:07;;;;;;;;;;;;;;;25.50;70.70;100827.88;5131564;27;1996;-61
2021/08/24 03:25:35;;;;;;;;;;;;;;;25.51;69.39;100826.06;5131518;27;1211;-62
2021/08/24 03:28:02;;;;;;;;;;;;;;;25.46;69.50;100829.09;5131459;27;1110;-61
2021/08/24 03:30:35;;;;;;;;;;;;;;;25.47;69.62;100822.78;5131212;27;1189;-62
2021/08/24 03:33:03;;;;;;;;;;;;;;;25.39;70.30;100817.25;5112486;27;1080;-62
2021/08/24 03:35:30;;;;;;;;;;;;;;;25.41;70.67;100815.28;5131485;27;1302;-61
2021/08/24 03:37:57;;;;;;;;;;;;;;;25.40;70.75;100824.28;5131220;27;1124;-61
2021/08/24 03:40:23;;;;;;;;;;;;;;;25.40;70.06;100818.94;5112850;27;1300;-62
2021/08/24 03:42:50;;;;;;;;;;;;;;;25.38;70.01;100822.72;5112323;27;1910;-63
2021/08/24 03:45:17;;;;;;;;;;;;;;;25.37;70.01;100824.53;5131548;27;1239;-62
2021/08/24 03:47:44;;;;;;;;;;;;;;;25.34;69.94;100818.59;5131398;27;851;-63
2021/08/24 03:50:11;;;;;;;;;;;;;;;25.36;69.29;100817.50;5131538;27;1323;-62
2021/08/24 03:52:37;;;;;;;;;;;;;;;25.34;68.12;100815.94;5131262;27;1388;-63
2021/08/24 03:55:04;;;;;;;;;;;;;;;25.33;68.25;100820.41;5095180;27;1183;-62
2021/08/24 03:57:31;;;;;;;;;;;;;;;25.36;68.58;100821.97;5131372;27;1226;-62
2021/08/24 03:59:58;;;;;;;;;;;;;;;25.30;69.20;100818.00;5096111;27;1318;-62
2021/08/24 04:02:26;;;;;;;;;;;;;;;25.32;69.67;100815.25;5130988;27;1973;-62
2021/08/24 04:04:53;;;;;;;;;;;;;;;25.28;69.91;100819.97;5131057;27;1142;-62
2021/08/24 04:07:19;;;;;;;;;;;;;;;25.24;69.09;100829.19;5130460;27;1228;-61
2021/08/24 04:09:47;;;;;;;;;;;;;;;25.19;68.37;100818.06;5130476;27;1073;-61
2021/08/24 04:12:14;;;;;;;;;;;;;;;25.18;69.36;100819.03;5112218;27;1169;-62
2021/08/24 04:14:41;;;;;;;;;;;;;;;25.14;69.46;100814.91;5111998;27;939;-61
2021/08/24 04:17:08;;;;;;;;;;;;;;;25.13;69.53;100821.25;5130469;27;1228;-62
2021/08/24 04:19:35;;;;;;;;;;;;;;;25.13;69.38;100823.91;5130490;27;1038;-62
2021/08/24 04:22:04;;;;;;;;;;;;;;;25.08;69.19;100815.41;5129875;27;1902;-62
2021/08/24 04:24:31;;;;;;;;;;;;;;;25.08;68.53;100818.09;5130386;27;905;-62
2021/08/24 04:26:58;;;;;;;;;;;;;;;25.07;68.10;100816.41;5130210;27;1289;-62
2021/08/24 04:29:24;;;;;;;;;;;;;;;24.99;68.57;100824.19;5111510;27;1066;-61
2021/08/24 04:31:51;;;;;;;;;;;;;;;24.96;67.32;100819.94;5130222;27;1216;-62
2021/08/24 04:34:18;;;;;;;;;;;;;;;24.93;68.19;100819.34;5129792;27;911;-61
2021/08/24 04:36:44;;;;;;;;;;;;;;;24.91;67.30;100818.63;5129747;27;1230;-62
2021/08/24 04:39:11;;;;;;;;;;;;;;;24.97;66.63;100815.47;5130578;27;958;-62
2021/08/24 04:41:39;;;;;;;;;;;;;;;24.89;66.98;100818.78;5111363;27;1306;-62
2021/08/24 04:44:06;;;;;;;;;;;;;;;24.87;66.35;100814.53;5129838;27;1913;-62
2021/08/24 04:46:32;;;;;;;;;;;;;;;24.91;65.59;100823.97;5129560;27;1239;-62
2021/08/24 04:48:59;;;;;;;;;;;;;;;24.84;65.63;100814.78;5130254;27;1131;-62
2021/08/24 04:51:26;;;;;;;;;;;;;;;24.88;64.99;100821.56;5111009;27;1371;-62
2021/08/24 04:53:53;;;;;;;;;;;;;;;24.91;64.47;100815.97;5129657;27;1186;-62
2021/08/24 04:56:19;;;;;;;;;;;;;;;24.84;64.64;100815.63;5129829;27;1219;-62
2021/08/24 04:58:46;;;;;;;;;;;;;;;24.79;64.22;100808.94;5129847;27;1006;-61
2021/08/24 05:01:13;;;;;;;;;;;;;;;24.83;63.66;100805.97;5129899;27;1218;-61
2021/08/24 05:03:40;;;;;;;;;;;;;;;24.83;63.89;100807.78;5130036;27;1905;-61
2021/08/24 05:06:07;;;;;;;;;;;;;;;24.80;63.88;100808.00;5129730;27;1222;-61
2021/08/24 05:08:33;;;;;;;;;;;;;;;24.80;64.02;100813.31;5129850;27;1115;-61
2021/08/24 05:11:00;;;;;;;;;;;;;;;24.80;64.29;100813.31;5129857;27;1273;-61
2021/08/24 05:13:27;;;;;;;;;;;;;;;24.84;64.39;100820.94;5129472;27;908;-61
2021/08/24 05:15:54;;;;;;;;;;;;;;;24.74;64.71;100819.13;5129456;27;1212;-61
2021/08/24 05:18:21;;;;;;;;;;;;;;;24.76;64.75;100817.19;5129149;27;1116;-61
2021/08/24 05:20:48;;;;;;;;;;;;;;;24.79;64.93;100812.47;5128987;27;1255;-61
2021/08/24 05:23:15;;;;;;;;;;;;;;;24.79;64.77;100808.94;5110157;28;2001;-61
2021/08/24 05:25:41;;;;;;;;;;;;;;;24.77;64.31;100817.06;5129474;27;1271;-61
2021/08/24 05:28:08;;;;;;;;;;;;;;;24.82;63.76;100816.72;5128894;27;901;-62
2021/08/24 05:30:35;;;;;;;;;;;;;;;24.76;64.34;100823.38;5129453;27;1247;-62
2021/08/24 05:33:01;;;;;;;;;;;;;;;24.85;63.24;100833.31;5128211;27;1182;-61
2021/08/24 05:35:28;;;;;;;;;;;;;;;24.80;63.30;100826.63;5123655;27;1533;-62
2021/08/24 05:37:55;;;;;;;;;;;;;;;24.86;63.29;100828.84;5105342;28;1471;-62
2021/08/24 05:40:23;;;;;;;;;;;;;;;24.87;63.25;100831.34;5098145;28;1229;-62
2021/08/24 05:42:50;;;;;;;;;;;;;;;24.88;63.58;100827.72;5102612;27;1921;-63
2021/08/24 05:45:17;;;;;;;;;;;;;;;24.90;63.86;100824.94;5088931;28;1309;-63
2021/08/24 05:47:44;;;;;;;;;;;;;;;24.86;64.00;100826.16;5089047;28;1370;-63
2021/08/24 05:50:11;;;;;;;;;;;;;;;24.90;63.80;100827.59;5107246;27;1454;-64
2021/08/24 05:52:38;;;;;;;;;;;;;;;24.91;63.89;100826.63;5107190;28;1246;-64
2021/08/24 05:55:05;;;;;;;;;;;;;;;24.88;63.01;100832.22;5107191;28;1477;-64
2021/08/24 05:57:32;;;;;;;;;;;;;;;24.91;62.99;100838.13;5088041;28;1420;-63
2021/08/24 05:59:59;;;;;;;;;;;;;;;24.93;62.37;100846.00;5089039;28;1168;-63
2021/08/24 06:02:30;;;;;;;;;;;;;;;24.94;62.66;100837.88;5107180;28;1941;-61
2021/08/24 06:04:57;;;;;;;;;;;;;;;24.96;62.33;100851.94;5107574;28;1185;-63
2021/08/24 06:07:23;;;;;;;;;;;;;;;24.95;62.11;100847.59;5107344;28;1288;-64
2021/08/24 06:09:50;;;;;;;;;;;;;;;24.95;62.11;100849.41;5088513;28;1306;-63
2021/08/24 06:12:19;;;;;;;;;;;;;;;24.99;60.92;100850.81;5088558;28;1337;-63
2021/08/24 06:14:46;;;;;;;;;;;;;;;24.97;60.62;100842.13;5107453;28;1102;-64
2021/08/24 06:17:12;;;;;;;;;;;;;;;24.96;59.81;100840.41;5088695;28;1853;-64
2021/08/24 06:19:39;;;;;;;;;;;;;;;24.95;60.13;100852.06;5107061;28;1150;-63
2021/08/24 06:22:06;;;;;;;;;;;;;;;24.96;60.07;100862.59;5107206;28;1307;-63
2021/08/24 06:24:34;;;;;;;;;;;;;;;24.97;59.65;100860.78;5107106;28;1976;-63
2021/08/24 06:27:01;;;;;;;;;;;;;;;24.96;59.71;100861.72;5107170;28;1216;-62
2021/08/24 06:29:28;;;;;;;;;;;;;;;25.00;59.95;100857.84;5108441;28;951;-63
2021/08/24 06:31:59;;;;;;;;;;;;;;;24.99;59.42;100861.47;5108108;28;1169;-63
2021/08/24 06:34:26;;;;;;;;;;;;;;;24.97;58.25;100863.44;5089737;28;1552;-62
2021/08/24 06:36:53;;;;;;;;;;;;;;;24.95;58.69;100860.06;5107532;28;1192;-63
2021/08/24 06:39:24;;;;;;;;;;;;;;;24.96;58.92;100867.06;5107238;28;1049;-63
2021/08/24 06:41:51;;;;;;;;;;;;;;;24.99;58.52;100873.00;5100750;28;1625;-62
2021/08/24 06:44:18;;;;;;;;;;;;;;;24.97;58.78;100866.94;5059831;28;1985;-62
2021/08/24 06:46:45;;;;;;;;;;;;;;;24.93;58.59;100865.50;5086746;28;1225;-64
2021/08/24 06:49:12;;;;;;;;;;;;;;;24.95;59.27;100860.91;5087086;28;1086;-62
2021/08/24 06:51:39;;;;;;;;;;;;;;;24.97;58.85;100864.28;5086589;28;1184;-62
2021/08/24 06:54:06;;;;;;;;;;;;;;;24.99;59.11;100870.34;5069725;28;1451;-62
2021/08/24 06:56:34;;;;;;;;;;;;;;;25.00;59.02;100874.69;5090299;28;1219;-63
2021/08/24 06:59:03;;;;;;;;;;;;;;;25.00;59.25;100873.84;5090476;28;1124;-63
2021/08/24 07:01:30;;;;;;;;;;;;;;;24.98;58.96;100871.31;5090025;28;1205;-62
2021/08/24 07:03:57;;;;;;;;;;;;;;;24.99;58.28;100872.13;5090125;28;1913;-62
2021/08/24 07:06:24;;;;;;;;;;;;;;;24.96;58.02;100872.38;5090349;28;1161;-63
2021/08/24 07:08:54;;;;;;;;;;;;;;;24.97;57.98;100880.28;5071535;28;1579;-62
2021/08/24 07:11:21;;;;;;;;;;;;;;;25.00;57.90;100881.84;5089772;28;1310;-63
2021/08/24 07:13:50;;;;;;;;;;;;;;;24.97;58.42;100887.41;5090046;28;917;-62
2021/08/24 07:16:17;;;;;;;;;;;;;;;25.02;58.62;100892.41;5071224;28;1279;-63
2021/08/24 07:18:44;;;;;;;;;;;;;;;25.00;58.20;100892.50;5089693;28;1144;-65
2021/08/24 07:21:13;;;;;;;;;;;;;;;25.02;59.14;100895.88;5089848;28;1275;-63
2021/08/24 07:23:40;;;;;;;;;;;;;;;25.02;59.71;100889.72;5089751;28;1922;-64
2021/08/24 07:26:07;;;;;;;;;;;;;;;25.00;59.95;100887.16;5089636;28;1141;-63
2021/08/24 07:28:33;;;;;;;;;;;;;;;25.03;60.14;100894.91;5090302;28;1268;-63
2021/08/24 07:31:00;;;;;;;;;;;;;;;25.02;60.05;100887.06;5089784;28;1323;-63
2021/08/24 07:33:27;;;;;;;;;;;;;;;25.02;60.77;100883.41;5089677;28;940;-63
2021/08/24 07:35:54;;;;;;;;;;;;;;;25.02;61.13;100892.41;5071389;28;1711;-63
2021/08/24 07:38:25;;;;;;;;;;;;;;;25.04;60.91;100887.78;5089929;28;1061;-63
2021/08/24 07:40:53;;;;;;;;;;;;;;;25.04;62.54;100890.44;5071949;28;1621;-63
2021/08/24 07:43:20;;;;;;;;;;;;;;;25.04;63.42;100883.28;5082781;28;1929;-63
2021/08/24 07:45:47;;;;;;;;;;;;;;;24.98;63.31;100881.13;5089518;28;1276;-63
2021/08/24 07:48:14;;;;;;;;;;;;;;;24.95;63.86;100876.06;5089590;28;1041;-63
2021/08/24 07:50:41;;;;;;;;;;;;;;;24.95;63.56;100876.06;5089661;28;1225;-63
2021/08/24 07:53:07;;;;;;;;;;;;;;;24.96;62.89;100880.38;5071067;28;1011;-63
2021/08/24 07:55:35;;;;;;;;;;;;;;;24.96;63.53;100877.72;5070896;28;1601;-63
2021/08/24 07:58:03;;;;;;;;;;;;;;;24.96;63.74;100883.06;5069976;28;1267;-62
2021/08/24 08:00:29;;;;;;;;;;;;;;;24.98;63.30;100886.47;5088674;28;1196;-62
2021/08/24 08:02:56;;;;;;;;;;;;;;;25.01;63.24;100880.88;5088878;28;1143;-63
2021/08/24 08:05:24;;;;;;;;;;;;;;;25.02;63.47;100877.22;5088568;28;1913;-63
2021/08/24 08:07:50;;;;;;;;;;;;;;;25.02;63.65;100887.88;5070596;28;1019;-64
2021/08/24 08:10:37;;;;;;;;;;;;;;;25.01;63.58;100891.53;5089180;28;1323;-63
2021/08/24 08:13:04;;;;;;;;;;;;;;;25.02;62.81;100890.56;5070189;28;1087;-62
2021/08/24 08:15:33;;;;;;;;;;;;;;;25.05;62.58;100886.81;5088126;28;1172;-64
2021/08/24 08:18:04;;;;;;;;;;;;;;;25.01;62.57;100886.22;5088750;28;1126;-64
2021/08/24 08:20:31;;;;;;;;;;;;;;;25.05;62.71;100895.63;5088943;28;1157;-64
2021/08/24 08:22:59;;;;;;;;;;;;;;;25.07;63.33;100901.72;5070815;28;1671;-60
2021/08/24 08:25:26;;;;;;;;;;;;;;;25.14;63.36;100897.56;5097813;27;1979;-64
2021/08/24 08:27:52;;;;;;;;;;;;;;;25.12;63.21;100895.97;5099241;28;1535;-65
2021/08/24 08:30:23;;;;;;;;;;;;;;;25.08;63.53;100897.22;5103759;28;1518;-66
2021/08/24 08:32:50;;;;;;;;;;;;;;;25.08;63.32;100887.38;5067509;28;1200;-69
2021/08/24 08:35:18;;;;;;;;;;;;;;;25.12;63.85;100899.50;5089151;28;1282;-68
2021/08/24 08:37:45;;;;;;;;;;;;;;;25.20;63.42;100905.03;5089186;28;826;-65
2021/08/24 08:40:20;;;;;;;;;;;;;;;25.23;62.74;100903.97;5071331;28;1547;-67
2021/08/24 08:42:49;;;;;;;;;;;;;;;25.27;63.06;100911.59;5100025;28;1392;-66
2021/08/24 08:45:37;;;;;;;;;;;;;;;25.25;61.88;100915.34;5092125;28;1984;-64
2021/08/24 08:48:10;;;;;;;;;;;;;;;25.22;61.38;100912.94;5109415;28;1124;-68
2021/08/24 08:50:37;;;;;;;;;;;;;;;25.19;62.48;100908.69;5090932;28;1200;-71
2021/08/24 08:53:14;;;;;;;;;;;;;;;25.23;62.15;100904.78;5109016;28;1090;-66
2021/08/24 08:55:56;;;;;;;;;;;;;;;25.20;61.94;100907.72;5069852;28;1366;-66
2021/08/24 08:58:28;;;;;;;;;;;;;;;25.20;63.00;100914.88;5088282;28;1576;-67
2021/08/24 09:01:01;;;;;;;;;;;;;;;25.21;61.16;100914.75;5088468;28;1268;-65
2021/08/24 09:03:39;;;;;;;;;;;;;;;25.26;61.43;100909.06;5088260;28;1967;-66
2021/08/24 09:06:06;;;;;;;;;;;;;;;25.25;61.43;100908.19;5069892;28;1533;-63
2021/08/24 09:08:35;;;;;;;;;;;;;;;25.23;61.06;100903.97;5087928;28;1042;-64
2021/08/24 09:11:05;;;;;;;;;;;;;;;25.25;61.21;100907.34;5068723;28;1459;-65
2021/08/24 09:13:46;;;;;;;;;;;;;;;25.31;60.75;100906.84;5088185;28;924;-64
2021/08/24 09:16:31;;;;;;;;;;;;;;;25.34;60.46;100903.94;5069273;28;1236;-62
2021/08/24 09:19:12;;;;;;;;;;;;;;;25.32;60.35;100898.72;5069789;28;1243;-62
2021/08/24 09:21:42;;;;;;;;;;;;;;;25.36;60.20;100900.16;5069759;28;1327;-63
2021/08/24 09:24:22;;;;;;;;;;;;;;;25.42;60.36;100897.00;5069174;28;1912;-62
2021/08/24 09:26:58;;;;;;;;;;;;;;;25.47;60.71;100901.97;5086232;28;1394;-62
2021/08/24 09:29:27;;;;;;;;;;;;;;;25.51;60.26;100906.06;5051660;28;1392;-60
2021/08/24 09:31:59;;;;;;;;;;;;;;;25.49;59.32;100910.69;5051379;28;1768;-62
2021/08/24 09:34:32;;;;;;;;;;;;;;;25.53;59.17;100904.97;5068075;28;1866;-63
2021/08/24 09:37:02;;;;;;;;;;;;;;;25.45;57.86;100910.06;5068159;28;1244;-62
2021/08/24 09:39:48;;;;;;;;;;;;;;;25.37;57.63;100912.53;5087335;28;1043;-63
2021/08/24 09:42:25;;;;;;;;;;;;;;;25.38;58.19;100911.53;5088042;28;1247;-62
2021/08/24 09:44:53;;;;;;;;;;;;;;;25.38;57.93;100916.06;5087563;28;1910;-64
2021/08/24 09:47:22;;;;;;;;;;;;;;;25.40;57.70;100916.75;5087901;28;1287;-63
2021/08/24 09:49:51;;;;;;;;;;;;;;;25.39;57.03;100913.25;5088441;28;1257;-63
2021/08/24 09:52:25;;;;;;;;;;;;;;;25.37;56.57;100920.53;5069328;28;1474;-63
2021/08/24 09:55:01;;;;;;;;;;;;;;;25.35;55.98;100910.97;5101042;28;1206;-62
2021/08/24 09:57:37;;;;;;;;;;;;;;;25.33;56.39;100916.41;5089474;28;1195;-63
2021/08/24 10:00:20;;;;;;;;;;;;;;;25.35;56.26;100914.44;5108419;28;1160;-62
2021/08/24 10:02:50;;;;;;;;;;;;;;;25.36;56.16;100910.81;5089523;28;1570;-63
2021/08/24 10:05:21;;;;;;;;;;;;;;;25.38;56.71;100908.06;5108208;28;1967;-62
2021/08/24 10:07:52;;;;;;;;;;;;;;;25.37;56.28;100909.88;5108484;28;829;-62
2021/08/24 10:10:24;;;;;;;;;;;;;;;25.35;56.54;100906.44;5108203;28;1220;-63
2021/08/24 10:13:26;;;;;;;;;;;;;;;25.36;56.42;100908.16;5107819;28;1244;-64
2021/08/24 10:16:02;;;;;;;;;;;;;;;25.38;56.13;100910.72;5107246;28;1259;-63
2021/08/24 10:18:30;;;;;;;;;;;;;;;25.39;55.39;100910.56;5107892;28;1093;-63
2021/08/24 10:21:01;;;;;;;;;;;;;;;25.40;55.58;100911.44;5107946;28;1192;-63
2021/08/24 10:23:34;;;;;;;;;;;;;;;25.39;55.72;100910.56;5089052;28;1171;-63
2021/08/24 10:26:04;;;;;;;;;;;;;;;25.40;55.57;100912.28;5089100;28;1347;-62
2021/08/24 10:28:51;;;;;;;;;;;;;;;25.39;56.29;100915.06;5110507;28;928;-62
2021/08/24 10:31:38;;;;;;;;;;;;;;;25.42;55.54;100915.66;5111877;28;1337;-63
2021/08/24 10:34:09;;;;;;;;;;;;;;;25.43;55.40;100914.69;5112198;28;1113;-61
2021/08/24 10:36:39;;;;;;;;;;;;;;;25.43;55.78;100911.19;5112017;28;1295;-63
2021/08/24 10:39:07;;;;;;;;;;;;;;;25.41;55.38;100913.94;5093553;28;1384;-63
2021/08/24 10:41:39;;;;;;;;;;;;;;;25.43;55.08;100921.84;5111510;28;1335;-63
2021/08/24 10:44:29;;;;;;;;;;;;;;;25.43;55.42;100914.69;5092947;28;1910;-62
2021/08/24 10:46:57;;;;;;;;;;;;;;;25.43;55.01;100914.69;5111691;28;1315;-63
2021/08/24 10:49:25;;;;;;;;;;;;;;;25.42;54.54;100906.81;5092983;28;1156;-62
2021/08/24 10:51:52;;;;;;;;;;;;;;;25.45;54.57;100919.88;5111501;28;1307;-63
2021/08/24 10:54:27;;;;;;;;;;;;;;;25.44;54.17;100910.22;5111379;28;1143;-63
2021/08/24 10:57:18;;;;;;;;;;;;;;;25.44;54.22;100905.69;5111462;28;1243;-62
2021/08/24 11:00:04;;;;;;;;;;;;;;;25.47;54.48;100901.97;5093375;28;1129;-63
2021/08/24 11:02:40;;;;;;;;;;;;;;;25.49;54.21;100892.88;5093474;28;1240;-63
2021/08/24 11:05:29;;;;;;;;;;;;;;;25.49;53.62;100900.88;5093288;28;1913;-63
2021/08/24 11:08:15;;;;;;;;;;;;;;;25.48;53.97;100893.84;5111475;28;1170;-63
2021/08/24 11:11:04;;;;;;;;;;;;;;;25.50;54.08;100891.88;5093095;28;1358;-63
2021/08/24 11:13:36;;;;;;;;;;;;;;;25.58;54.23;100882.41;5092743;28;1223;-62
2021/08/24 11:16:27;;;;;;;;;;;;;;;25.61;54.31;100884.81;5111253;28;1201;-63
2021/08/24 11:19:03;;;;;;;;;;;;;;;25.63;55.12;100877.53;5093854;28;1070;-63
2021/08/24 11:21:34;;;;;;;;;;;;;;;25.65;54.21;100875.59;5092475;28;1485;-63
2021/08/24 11:24:15;;;;;;;;;;;;;;;25.64;54.54;100871.22;5110295;28;1917;-62
2021/08/24 11:27:02;;;;;;;;;;;;;;;25.66;54.10;100870.13;5110702;28;1355;-63
2021/08/24 11:29:37;;;;;;;;;;;;;;;25.67;53.83;100874.50;5111302;28;1084;-63
2021/08/24 11:32:04;;;;;;;;;;;;;;;25.66;54.38;100871.94;5093037;28;1373;-63
2021/08/24 11:34:37;;;;;;;;;;;;;;;25.71;54.33;100877.75;5111577;28;906;-64
2021/08/24 11:37:09;;;;;;;;;;;;;;;25.68;54.26;100870.00;5111073;28;1311;-63
2021/08/24 11:39:36;;;;;;;;;;;;;;;25.68;53.75;100864.66;5109884;28;1025;-64
2021/08/24 11:42:07;;;;;;;;;;;;;;;25.72;53.81;100863.41;5092433;28;1278;-63
2021/08/24 11:44:50;;;;;;;;;;;;;;;25.78;53.28;100866.41;5092284;28;1978;-63
2021/08/24 11:47:21;;;;;;;;;;;;;;;25.80;53.98;100868.97;5110501;28;1260;-63
2021/08/24 11:50:00;;;;;;;;;;;;;;;25.77;54.00;100861.22;5077320;28;1347;-62
2021/08/24 11:52:42;;;;;;;;;;;;;;;25.76;53.66;100856.84;5110564;28;1275;-63
2021/08/24 11:55:29;;;;;;;;;;;;;;;25.77;52.09;100853.22;5091447;28;1390;-63
2021/08/24 11:58:01;;;;;;;;;;;;;;;25.73;52.25;100863.31;5110606;28;1030;-63
2021/08/24 12:00:31;;;;;;;;;;;;;;;25.80;52.15;100855.63;5110555;28;1350;-63
2021/08/24 12:03:00;;;;;;;;;;;;;;;25.79;52.57;100848.59;5092096;28;1081;-62
2021/08/24 12:05:34;;;;;;;;;;;;;;;25.77;52.91;100847.88;5110269;28;1984;-63
2021/08/24 12:08:12;;;;;;;;;;;;;;;25.72;52.42;100844.75;5091669;28;1299;-63
2021/08/24 12:10:51;;;;;;;;;;;;;;;25.76;52.57;100841.69;5110460;28;1307;-63
2021/08/24 12:13:29;;;;;;;;;;;;;;;25.83;52.24;100834.03;5084840;28;1639;-67
2021/08/24 12:16:08;;;;;;;;;;;;;;;25.91;52.52;100834.19;5088125;28;1292;-66
2021/08/24 12:18:36;;;;;;;;;;;;;;;25.90;53.28;100828.00;5061635;28;1436;-72
2021/08/24 12:21:22;;;;;;;;;;;;;;;25.90;53.59;100833.34;5096472;28;1276;-72
2021/08/24 12:23:49;;;;;;;;;;;;;;;25.91;53.77;100839.53;5107825;28;832;-69
2021/08/24 12:26:34;;;;;;;;;;;;;;;25.92;53.64;100839.41;5107523;28;1913;-70
2021/08/24 12:29:21;;;;;;;;;;;;;;;25.91;53.41;100834.19;5106348;28;1262;-68
2021/08/24 12:31:48;;;;;;;;;;;;;;;25.86;52.62;100836.44;5087772;28;1267;-70
2021/08/24 12:34:47;;;;;;;;;;;;;;;25.89;52.67;100847.69;5106942;28;1031;-69
2021/08/24 12:37:20;;;;;;;;;;;;;;;25.92;52.87;100851.91;5051127;28;1272;-69
2021/08/24 12:39:47;;;;;;;;;;;;;;;25.94;52.87;100844.63;5107053;28;774;-68
2021/08/24 12:42:25;;;;;;;;;;;;;;;25.94;52.47;100850.81;5107702;28;1231;-67
2021/08/24 12:45:01;;;;;;;;;;;;;;;25.98;52.60;100851.38;5107114;28;2008;-69
2021/08/24 12:47:31;;;;;;;;;;;;;;;25.99;52.89;100851.25;5072163;28;1314;-70
2021/08/24 12:49:57;;;;;;;;;;;;;;;25.98;52.82;100844.22;5093718;28;1152;-70
2021/08/24 12:52:40;;;;;;;;;;;;;;;26.04;52.97;100850.88;5097399;27;1276;-71
2021/08/24 12:55:11;;;;;;;;;;;;;;;26.00;53.19;100844.09;5106777;28;1562;-73
2021/08/24 12:57:45;;;;;;;;;;;;;;;25.99;53.12;100848.56;5107042;28;770;-72
2021/08/24 13:00:30;;;;;;;;;;;;;;;26.09;52.65;100846.81;5106933;28;1056;-72
2021/08/24 13:02:57;;;;;;;;;;;;;;;26.09;53.08;100837.94;5087421;28;1379;-71
2021/08/24 13:05:26;;;;;;;;;;;;;;;26.12;53.89;100845.69;5088982;28;1976;-68
2021/08/24 13:07:59;;;;;;;;;;;;;;;26.19;53.69;100836.22;5070116;28;790;-68